Time;durP1;ratioP1;P1;durP2;ratioP2;P2;SDS_P1;SDS_P2;PMS_P1;PMS_P2;Temp;Humidity;BMP_temperature;BMP_pressure;BME280_temperature;BME280_humidity;BME280_pressure;Samples;Min_cycle;Max_cycle;Signal;HPM_P1;HPM_P2
2022/03/03 00:01:29;;;;;;;;;26.25;20.75;;;;;;;;5022333;28;51447;-44
2022/03/03 00:04:13;;;;;;;;;24.25;17.25;;;;;;;;5033366;28;51148;-46
2022/03/03 00:06:57;;;;;;;;;25.25;17.00;;;;;;;;5039702;28;51116;-47
2022/03/03 00:09:42;;;;;;;;;28.00;17.00;;;;;;;;5039073;28;51409;-47
2022/03/03 00:12:26;;;;;;;;;29.50;20.75;;;;;;;;5039428;28;51189;-43
2022/03/03 00:15:11;;;;;;;;;25.00;20.25;;;;;;;;5024197;28;51020;-45
2022/03/03 00:17:55;;;;;;;;;21.25;17.75;;;;;;;;5019657;28;51122;-46
2022/03/03 00:20:39;;;;;;;;;24.75;20.50;;;;;;;;5018966;28;51457;-46
2022/03/03 00:23:24;;;;;;;;;19.75;15.75;;;;;;;;5019538;28;51186;-46
2022/03/03 00:26:08;;;;;;;;;30.00;20.25;;;;;;;;5039412;28;51195;-46
2022/03/03 00:28:53;;;;;;;;;24.50;20.25;;;;;;;;5039262;28;51209;-45
2022/03/03 00:31:37;;;;;;;;;21.00;14.75;;;;;;;;5039008;28;51072;-45
2022/03/03 00:34:21;;;;;;;;;32.50;23.25;;;;;;;;5018727;28;51918;-45
2022/03/03 00:37:06;;;;;;;;;24.75;18.75;;;;;;;;5034048;28;51096;-48
2022/03/03 00:39:50;;;;;;;;;26.75;17.50;;;;;;;;5026417;28;51511;-44
2022/03/03 00:42:35;;;;;;;;;19.50;17.25;;;;;;;;5039319;28;51250;-45
2022/03/03 00:45:19;;;;;;;;;27.25;22.00;;;;;;;;5024063;28;51420;-46
2022/03/03 00:48:04;;;;;;;;;27.25;20.50;;;;;;;;5037439;28;51088;-47
2022/03/03 00:50:48;;;;;;;;;26.50;19.00;;;;;;;;5005161;28;51648;-45
2022/03/03 00:53:37;;;;;;;;;26.25;18.50;;;;;;;;5011220;28;51525;-45
2022/03/03 00:56:21;;;;;;;;;30.25;19.25;;;;;;;;5021025;28;51464;-45
2022/03/03 00:59:05;;;;;;;;;23.50;22.00;;;;;;;;5022917;28;51242;-45
2022/03/03 01:01:50;;;;;;;;;26.25;17.50;;;;;;;;5035446;28;51202;-45
2022/03/03 01:04:35;;;;;;;;;28.75;20.25;;;;;;;;5019117;28;51134;-45
2022/03/03 01:07:19;;;;;;;;;21.50;19.00;;;;;;;;5038502;28;51334;-45
2022/03/03 01:10:04;;;;;;;;;24.25;19.50;;;;;;;;5031462;28;51210;-46
2022/03/03 01:12:49;;;;;;;;;23.25;20.00;;;;;;;;5021373;28;51234;-45
2022/03/03 01:15:33;;;;;;;;;24.00;17.25;;;;;;;;5019976;28;51205;-45
2022/03/03 01:18:17;;;;;;;;;22.50;17.50;;;;;;;;5033342;28;51092;-46
2022/03/03 01:21:02;;;;;;;;;21.75;17.50;;;;;;;;5041211;28;51236;-46
2022/03/03 01:23:46;;;;;;;;;25.25;19.50;;;;;;;;5041106;28;51560;-46
2022/03/03 01:26:31;;;;;;;;;22.00;14.00;;;;;;;;5028811;28;51141;-45
2022/03/03 01:29:15;;;;;;;;;36.00;26.00;;;;;;;;5024960;28;51814;-45
2022/03/03 01:32:00;;;;;;;;;29.25;22.25;;;;;;;;5030818;28;51099;-45
2022/03/03 01:34:44;;;;;;;;;24.75;18.75;;;;;;;;5030062;28;51180;-46
2022/03/03 01:37:29;;;;;;;;;25.25;16.25;;;;;;;;5042417;28;51083;-45
2022/03/03 01:40:13;;;;;;;;;29.50;22.75;;;;;;;;5033051;28;51303;-45
2022/03/03 01:42:57;;;;;;;;;20.50;20.50;;;;;;;;5025132;28;51118;-45
2022/03/03 01:45:42;;;;;;;;;28.75;17.75;;;;;;;;5042085;28;51089;-45
2022/03/03 01:48:26;;;;;;;;;21.25;19.50;;;;;;;;5041533;28;51532;-46
2022/03/03 01:51:11;;;;;;;;;26.00;21.50;;;;;;;;5024931;28;51174;-45
2022/03/03 01:53:55;;;;;;;;;25.25;19.00;;;;;;;;5030914;28;51086;-45
2022/03/03 01:56:40;;;;;;;;;25.50;19.50;;;;;;;;5022748;28;51118;-46
2022/03/03 01:59:25;;;;;;;;;32.25;21.25;;;;;;;;5041209;28;51337;-45
2022/03/03 02:02:13;;;;;;;;;23.25;18.00;;;;;;;;5032416;28;51248;-46
2022/03/03 02:04:57;;;;;;;;;29.75;20.25;;;;;;;;5035293;28;51435;-45
2022/03/03 02:07:42;;;;;;;;;24.00;19.25;;;;;;;;5026686;28;51150;-46
2022/03/03 02:10:26;;;;;;;;;27.50;21.00;;;;;;;;5028210;28;51221;-45
2022/03/03 02:13:11;;;;;;;;;20.75;19.00;;;;;;;;5022784;28;51095;-45
2022/03/03 02:15:55;;;;;;;;;24.50;20.00;;;;;;;;5041595;28;50999;-45
2022/03/03 02:18:43;;;;;;;;;25.75;19.50;;;;;;;;5040867;28;51154;-45
2022/03/03 02:21:30;;;;;;;;;24.00;19.50;;;;;;;;5040769;28;51074;-45
2022/03/03 02:24:14;;;;;;;;;26.75;19.50;;;;;;;;5041376;28;51406;-45
2022/03/03 02:27:00;;;;;;;;;26.50;19.00;;;;;;;;5041330;28;51108;-46
2022/03/03 02:29:44;;;;;;;;;24.50;19.75;;;;;;;;5041249;28;51646;-45
2022/03/03 02:32:28;;;;;;;;;21.25;20.75;;;;;;;;5039820;28;51041;-46
2022/03/03 02:35:13;;;;;;;;;26.00;23.50;;;;;;;;5036846;28;51523;-46
2022/03/03 02:37:57;;;;;;;;;28.75;25.25;;;;;;;;5032393;28;51142;-45
2022/03/03 02:40:41;;;;;;;;;32.25;26.50;;;;;;;;5023805;28;51102;-45
2022/03/03 02:43:26;;;;;;;;;49.50;37.75;;;;;;;;5041087;28;51110;-46
2022/03/03 02:46:10;;;;;;;;;41.75;33.25;;;;;;;;5021558;28;51190;-47
2022/03/03 02:48:55;;;;;;;;;46.00;36.50;;;;;;;;5006273;28;51188;-48
2022/03/03 02:51:40;;;;;;;;;51.50;40.25;;;;;;;;5040719;28;51109;-46
2022/03/03 02:54:24;;;;;;;;;50.25;37.50;;;;;;;;5035888;28;51132;-47
2022/03/03 03:00:11;;;;;;;;;42.25;31.50;;;;;;;;5040890;28;51132;-46
2022/03/03 03:02:56;;;;;;;;;48.75;35.25;;;;;;;;5023801;28;51456;-46
2022/03/03 03:05:41;;;;;;;;;35.25;31.75;;;;;;;;5026605;28;51204;-48
2022/03/03 03:08:26;;;;;;;;;47.25;36.75;;;;;;;;5029691;28;51312;-46
2022/03/03 03:11:10;;;;;;;;;35.75;27.25;;;;;;;;5034992;28;51251;-46
2022/03/03 03:13:54;;;;;;;;;41.25;31.75;;;;;;;;5027854;28;51737;-45
2022/03/03 03:16:39;;;;;;;;;35.75;31.00;;;;;;;;5040933;28;51101;-46
2022/03/03 03:19:24;;;;;;;;;34.75;27.75;;;;;;;;5040521;28;51154;-45
2022/03/03 03:22:08;;;;;;;;;30.50;26.00;;;;;;;;5025254;28;51126;-45
2022/03/03 03:24:52;;;;;;;;;33.00;23.00;;;;;;;;5040631;28;51089;-46
2022/03/03 03:27:37;;;;;;;;;32.00;25.25;;;;;;;;5028769;28;51271;-45
2022/03/03 03:30:22;;;;;;;;;31.75;22.25;;;;;;;;5024856;28;51450;-46
2022/03/03 03:33:06;;;;;;;;;20.25;14.50;;;;;;;;5029582;28;51196;-46
2022/03/03 03:35:50;;;;;;;;;43.00;32.00;;;;;;;;5039118;28;51590;-45
2022/03/03 03:38:35;;;;;;;;;38.50;30.75;;;;;;;;5036983;28;51392;-46
2022/03/03 03:41:20;;;;;;;;;30.00;22.00;;;;;;;;5037241;28;51238;-45
2022/03/03 03:44:05;;;;;;;;;19.75;18.75;;;;;;;;5039942;28;51454;-47
2022/03/03 03:46:49;;;;;;;;;23.25;19.50;;;;;;;;5039647;28;51041;-46
2022/03/03 03:49:33;;;;;;;;;22.00;16.75;;;;;;;;5026129;28;51181;-46
2022/03/03 03:52:18;;;;;;;;;18.50;16.50;;;;;;;;5023245;28;51548;-47
2022/03/03 03:55:03;;;;;;;;;20.00;15.00;;;;;;;;5038003;28;51098;-47
2022/03/03 03:57:47;;;;;;;;;23.00;20.00;;;;;;;;5039171;28;51127;-45
2022/03/03 04:00:32;;;;;;;;;16.75;15.25;;;;;;;;5015195;28;51127;-45
2022/03/03 04:03:16;;;;;;;;;20.25;17.50;;;;;;;;5025600;28;51154;-47
2022/03/03 04:06:01;;;;;;;;;21.25;18.50;;;;;;;;5032288;28;51053;-47
2022/03/03 04:08:47;;;;;;;;;26.50;21.75;;;;;;;;5025616;28;51330;-47
2022/03/03 04:11:31;;;;;;;;;44.75;32.75;;;;;;;;5039170;28;51268;-46
2022/03/03 04:14:16;;;;;;;;;44.00;33.50;;;;;;;;5034692;28;51387;-46
2022/03/03 04:17:00;;;;;;;;;39.75;33.00;;;;;;;;5039127;28;51428;-46
2022/03/03 04:19:44;;;;;;;;;27.50;20.50;;;;;;;;5015843;28;51613;-45
2022/03/03 04:22:29;;;;;;;;;20.00;19.50;;;;;;;;5028674;28;51236;-45
2022/03/03 04:25:13;;;;;;;;;24.75;17.75;;;;;;;;5017449;28;51554;-45
2022/03/03 04:27:57;;;;;;;;;28.00;24.75;;;;;;;;5035571;28;51373;-46
2022/03/03 04:30:42;;;;;;;;;23.50;22.25;;;;;;;;5032166;28;51035;-49
2022/03/03 04:33:26;;;;;;;;;30.00;29.25;;;;;;;;5021830;28;52067;-47
2022/03/03 04:36:11;;;;;;;;;32.50;25.75;;;;;;;;5021992;28;51230;-45
2022/03/03 04:38:55;;;;;;;;;32.50;28.25;;;;;;;;5039124;28;51153;-45
2022/03/03 04:41:39;;;;;;;;;28.50;24.50;;;;;;;;5023566;28;51067;-45
2022/03/03 04:44:24;;;;;;;;;29.50;23.25;;;;;;;;5029636;28;51084;-47
2022/03/03 04:47:08;;;;;;;;;29.75;24.25;;;;;;;;5020874;28;51419;-45
2022/03/03 04:49:53;;;;;;;;;25.25;22.75;;;;;;;;5033424;28;51156;-46
2022/03/03 04:52:37;;;;;;;;;29.50;26.50;;;;;;;;5018106;28;51153;-45
2022/03/03 04:55:21;;;;;;;;;28.50;25.75;;;;;;;;5024353;28;51043;-47
2022/03/03 04:58:06;;;;;;;;;26.00;20.50;;;;;;;;5038346;28;51482;-45
2022/03/03 05:00:50;;;;;;;;;27.50;25.75;;;;;;;;5029611;28;51136;-50
2022/03/03 05:03:35;;;;;;;;;24.25;21.75;;;;;;;;5024126;28;51106;-48
2022/03/03 05:06:19;;;;;;;;;23.75;21.00;;;;;;;;5038182;28;51029;-46
2022/03/03 05:09:03;;;;;;;;;23.75;19.00;;;;;;;;5038382;28;50952;-46
2022/03/03 05:11:48;;;;;;;;;23.25;20.00;;;;;;;;5037811;28;51245;-47
2022/03/03 05:14:32;;;;;;;;;26.75;17.50;;;;;;;;5038430;28;51106;-48
2022/03/03 05:17:17;;;;;;;;;20.00;17.75;;;;;;;;5025281;28;51377;-47
2022/03/03 05:20:01;;;;;;;;;24.00;20.00;;;;;;;;5020678;28;51163;-45
2022/03/03 05:22:45;;;;;;;;;28.00;21.25;;;;;;;;5019726;28;51583;-47
2022/03/03 05:25:30;;;;;;;;;32.25;28.50;;;;;;;;5032035;28;51142;-47
2022/03/03 05:28:15;;;;;;;;;89.50;83.50;;;;;;;;5030543;28;52059;-47
2022/03/03 05:31:00;;;;;;;;;135.75;127.75;;;;;;;;5030725;28;51451;-49
2022/03/03 05:33:44;;;;;;;;;166.75;148.00;;;;;;;;5037574;28;51073;-49
2022/03/03 05:36:29;;;;;;;;;172.50;151.50;;;;;;;;5037905;28;51145;-47
2022/03/03 05:39:14;;;;;;;;;166.25;146.25;;;;;;;;5024932;28;51130;-46
2022/03/03 05:41:58;;;;;;;;;124.75;103.50;;;;;;;;5037862;28;51471;-49
2022/03/03 05:44:43;;;;;;;;;138.50;118.50;;;;;;;;5029205;28;51353;-51
2022/03/03 05:47:28;;;;;;;;;144.00;126.75;;;;;;;;5037420;28;51225;-49
2022/03/03 05:50:13;;;;;;;;;122.50;106.00;;;;;;;;5026186;28;51244;-48
2022/03/03 05:52:59;;;;;;;;;88.00;74.25;;;;;;;;5037489;28;51070;-45
2022/03/03 05:55:49;;;;;;;;;46.25;34.75;;;;;;;;5037271;28;51494;-47
2022/03/03 05:58:40;;;;;;;;;36.00;30.50;;;;;;;;5021741;28;51500;-47
2022/03/03 06:01:24;;;;;;;;;35.25;29.00;;;;;;;;5028719;28;51566;-45
2022/03/03 06:04:12;;;;;;;;;25.50;22.75;;;;;;;;5022838;28;51117;-47
2022/03/03 06:07:00;;;;;;;;;27.00;21.00;;;;;;;;5025310;28;51562;-46
2022/03/03 06:09:46;;;;;;;;;23.25;20.25;;;;;;;;5040876;28;51156;-49
2022/03/03 06:12:39;;;;;;;;;28.75;21.00;;;;;;;;5041356;28;51623;-45
2022/03/03 06:15:23;;;;;;;;;25.00;22.75;;;;;;;;5040003;28;51199;-47
2022/03/03 06:18:08;;;;;;;;;28.25;23.00;;;;;;;;5021990;28;51449;-49
2022/03/03 06:20:52;;;;;;;;;30.00;23.50;;;;;;;;5034716;28;51081;-48
2022/03/03 06:23:36;;;;;;;;;28.50;22.75;;;;;;;;5040792;28;51129;-45
2022/03/03 06:26:21;;;;;;;;;28.50;24.75;;;;;;;;5031396;28;51098;-46
2022/03/03 06:29:05;;;;;;;;;34.50;28.00;;;;;;;;5024370;28;51119;-48
2022/03/03 06:31:50;;;;;;;;;39.50;28.75;;;;;;;;5040890;28;51369;-46
2022/03/03 06:34:34;;;;;;;;;31.00;25.00;;;;;;;;5040733;28;51461;-47
2022/03/03 06:37:18;;;;;;;;;29.25;22.00;;;;;;;;5041039;28;51554;-47
2022/03/03 06:40:03;;;;;;;;;35.00;28.75;;;;;;;;5035834;28;51074;-45
2022/03/03 06:42:48;;;;;;;;;28.75;20.75;;;;;;;;5021012;28;51145;-48
2022/03/03 06:45:32;;;;;;;;;25.50;20.50;;;;;;;;5036662;28;51188;-48
2022/03/03 06:48:17;;;;;;;;;32.00;25.25;;;;;;;;5040848;28;51514;-47
2022/03/03 06:51:02;;;;;;;;;39.00;25.00;;;;;;;;5039933;28;51195;-47
2022/03/03 06:53:49;;;;;;;;;31.50;27.50;;;;;;;;5041136;28;51318;-46
2022/03/03 06:56:35;;;;;;;;;39.00;28.50;;;;;;;;5040230;28;51537;-46
2022/03/03 06:59:27;;;;;;;;;41.50;30.25;;;;;;;;5040216;28;51201;-46
2022/03/03 07:02:11;;;;;;;;;36.00;32.50;;;;;;;;5020509;28;51213;-44
2022/03/03 07:04:55;;;;;;;;;43.00;31.25;;;;;;;;5023714;28;51159;-44
2022/03/03 07:07:41;;;;;;;;;44.75;33.25;;;;;;;;5040607;28;51175;-46
2022/03/03 07:10:26;;;;;;;;;33.50;26.00;;;;;;;;5020238;28;51486;-44
2022/03/03 07:13:10;;;;;;;;;35.25;29.75;;;;;;;;5040267;28;51603;-46
2022/03/03 07:15:55;;;;;;;;;52.25;42.50;;;;;;;;5040168;28;51125;-44
2022/03/03 07:18:42;;;;;;;;;58.00;45.00;;;;;;;;5040381;28;51249;-45
2022/03/03 07:21:47;;;;;;;;;45.75;38.50;;;;;;;;5039851;28;51353;-46
2022/03/03 07:24:33;;;;;;;;;49.00;40.00;;;;;;;;5039398;28;51113;-45
2022/03/03 07:27:21;;;;;;;;;57.25;42.25;;;;;;;;5025542;28;51119;-46
2022/03/03 07:30:07;;;;;;;;;57.00;45.50;;;;;;;;5019462;28;51319;-44
2022/03/03 07:32:55;;;;;;;;;58.00;43.75;;;;;;;;5019832;28;51217;-46
2022/03/03 07:35:42;;;;;;;;;52.25;43.25;;;;;;;;5039118;28;51613;-47
2022/03/03 07:38:29;;;;;;;;;52.75;41.25;;;;;;;;5027245;28;51231;-45
2022/03/03 07:41:14;;;;;;;;;52.00;41.75;;;;;;;;5039486;28;51172;-45
2022/03/03 07:44:00;;;;;;;;;52.50;40.50;;;;;;;;5040173;28;51100;-46
2022/03/03 07:46:44;;;;;;;;;46.75;38.25;;;;;;;;5035289;28;51588;-46
2022/03/03 07:49:29;;;;;;;;;41.25;32.00;;;;;;;;5039099;28;51174;-45
2022/03/03 07:52:14;;;;;;;;;43.25;30.25;;;;;;;;5039721;28;51507;-46
2022/03/03 07:54:58;;;;;;;;;29.00;22.00;;;;;;;;5039226;28;51067;-47
2022/03/03 07:57:55;;;;;;;;;23.25;19.50;;;;;;;;5023516;28;51180;-45
2022/03/03 08:00:45;;;;;;;;;19.75;15.50;;;;;;;;5038118;28;51398;-45
2022/03/03 08:03:30;;;;;;;;;23.25;14.50;;;;;;;;5019288;28;51209;-45
2022/03/03 08:06:15;;;;;;;;;18.50;15.00;;;;;;;;5037745;28;51108;-46
2022/03/03 08:08:59;;;;;;;;;16.00;13.25;;;;;;;;5029570;28;52425;-46
2022/03/03 08:11:46;;;;;;;;;19.75;14.00;;;;;;;;5024028;28;51129;-46
2022/03/03 08:14:30;;;;;;;;;13.75;13.75;;;;;;;;5029703;28;51065;-45
2022/03/03 08:17:15;;;;;;;;;19.00;12.75;;;;;;;;5018786;28;51041;-47
2022/03/03 08:20:01;;;;;;;;;18.75;14.25;;;;;;;;5028195;28;51174;-45
2022/03/03 08:22:45;;;;;;;;;19.25;12.50;;;;;;;;5034272;28;51248;-45
2022/03/03 08:25:30;;;;;;;;;19.75;14.00;;;;;;;;5039161;28;51177;-47
2022/03/03 08:28:17;;;;;;;;;26.25;18.25;;;;;;;;5038966;28;51074;-46
2022/03/03 08:31:03;;;;;;;;;22.25;20.75;;;;;;;;5024228;28;51086;-46
2022/03/03 08:33:59;;;;;;;;;22.25;18.25;;;;;;;;5030943;28;51132;-45
2022/03/03 08:36:54;;;;;;;;;20.00;17.75;;;;;;;;5038119;28;51065;-45
2022/03/03 08:39:38;;;;;;;;;17.50;16.00;;;;;;;;5021371;28;51136;-46
2022/03/03 08:42:26;;;;;;;;;21.50;15.75;;;;;;;;5019028;28;51474;-46
2022/03/03 08:45:12;;;;;;;;;21.75;16.00;;;;;;;;5038011;28;51359;-46
2022/03/03 08:47:58;;;;;;;;;16.25;13.50;;;;;;;;5032724;28;51167;-46
2022/03/03 08:50:43;;;;;;;;;18.25;12.50;;;;;;;;5018625;28;51019;-47
2022/03/03 08:53:27;;;;;;;;;22.75;14.50;;;;;;;;5039336;28;51142;-46
2022/03/03 08:56:11;;;;;;;;;18.25;13.75;;;;;;;;5038697;28;51145;-45
2022/03/03 08:58:56;;;;;;;;;23.00;14.50;;;;;;;;5028060;28;51075;-47
2022/03/03 09:01:40;;;;;;;;;16.00;13.00;;;;;;;;5018762;28;51409;-46
2022/03/03 09:04:25;;;;;;;;;16.00;12.75;;;;;;;;5039066;28;51073;-46
2022/03/03 09:07:09;;;;;;;;;17.50;14.75;;;;;;;;5030950;28;52591;-47
2022/03/03 09:09:53;;;;;;;;;16.25;12.25;;;;;;;;5027918;28;51114;-47
2022/03/03 09:12:38;;;;;;;;;15.75;13.50;;;;;;;;5018949;28;51094;-50
2022/03/03 09:15:22;;;;;;;;;19.25;14.75;;;;;;;;5021064;28;51145;-49
2022/03/03 09:18:07;;;;;;;;;20.50;14.00;;;;;;;;5021803;28;51163;-45
2022/03/03 09:20:51;;;;;;;;;18.25;13.00;;;;;;;;5037886;28;51145;-45
2022/03/03 09:23:36;;;;;;;;;20.50;14.00;;;;;;;;5022043;28;52436;-50
2022/03/03 09:26:20;;;;;;;;;22.75;14.00;;;;;;;;5030257;28;51246;-48
2022/03/03 09:29:10;;;;;;;;;16.00;14.00;;;;;;;;5039230;28;51526;-47
2022/03/03 09:31:54;;;;;;;;;24.00;16.75;;;;;;;;5033133;28;51250;-46
2022/03/03 09:34:39;;;;;;;;;21.75;18.00;;;;;;;;5031431;28;51155;-48
2022/03/03 09:37:23;;;;;;;;;15.75;13.75;;;;;;;;5034326;28;51669;-47
2022/03/03 09:40:08;;;;;;;;;23.00;18.50;;;;;;;;5032956;28;51054;-46
2022/03/03 09:43:07;;;;;;;;;22.25;16.50;;;;;;;;5041020;28;51070;-48
2022/03/03 09:45:51;;;;;;;;;20.50;15.25;;;;;;;;5041531;28;51155;-49
2022/03/03 09:48:35;;;;;;;;;16.75;14.75;;;;;;;;5037715;28;51038;-47
2022/03/03 09:51:20;;;;;;;;;18.75;15.50;;;;;;;;5019984;28;51471;-48
2022/03/03 09:54:08;;;;;;;;;25.50;19.50;;;;;;;;5029121;28;51157;-48
2022/03/03 09:56:52;;;;;;;;;21.75;18.00;;;;;;;;5030218;28;51501;-45
2022/03/03 09:59:36;;;;;;;;;18.50;18.00;;;;;;;;5031089;28;51932;-44
2022/03/03 10:02:21;;;;;;;;;20.00;15.50;;;;;;;;5032348;28;51562;-48
2022/03/03 10:05:05;;;;;;;;;22.75;19.25;;;;;;;;5031511;28;51155;-46
2022/03/03 10:08:00;;;;;;;;;22.50;17.00;;;;;;;;5033899;28;51423;-48
2022/03/03 10:10:46;;;;;;;;;25.00;20.50;;;;;;;;5031658;28;51425;-48
2022/03/03 10:13:45;;;;;;;;;19.50;18.75;;;;;;;;5030360;28;51448;-48
2022/03/03 10:16:31;;;;;;;;;25.25;17.25;;;;;;;;5022725;28;51330;-46
2022/03/03 10:19:15;;;;;;;;;24.50;19.75;;;;;;;;5028888;28;51513;-46
2022/03/03 10:22:00;;;;;;;;;28.00;20.00;;;;;;;;5021399;28;51675;-47
2022/03/03 10:24:44;;;;;;;;;27.75;22.25;;;;;;;;5020570;28;51078;-47
2022/03/03 10:27:31;;;;;;;;;22.75;18.25;;;;;;;;5030512;28;51179;-46
2022/03/03 10:30:15;;;;;;;;;25.00;19.25;;;;;;;;5023284;28;51262;-46
2022/03/03 10:33:19;;;;;;;;;26.00;19.75;;;;;;;;5026655;28;51532;-46
2022/03/03 10:36:08;;;;;;;;;25.75;19.00;;;;;;;;5038840;28;51396;-45
2022/03/03 10:38:59;;;;;;;;;27.00;20.75;;;;;;;;5030226;28;51117;-46
2022/03/03 10:41:51;;;;;;;;;27.50;20.50;;;;;;;;5039151;28;51367;-45
2022/03/03 10:44:36;;;;;;;;;27.75;21.00;;;;;;;;5040203;28;51268;-47
2022/03/03 10:47:21;;;;;;;;;27.75;20.75;;;;;;;;5032927;28;51006;-47
2022/03/03 10:50:06;;;;;;;;;29.75;21.25;;;;;;;;5029029;28;51146;-47
2022/03/03 10:52:50;;;;;;;;;23.50;20.00;;;;;;;;5037785;28;51146;-46
2022/03/03 10:55:35;;;;;;;;;31.50;23.75;;;;;;;;5034542;28;51106;-45
2022/03/03 10:58:19;;;;;;;;;31.00;23.25;;;;;;;;5031291;28;51028;-48
2022/03/03 11:01:03;;;;;;;;;25.50;19.00;;;;;;;;5039783;28;51093;-46
2022/03/03 11:03:51;;;;;;;;;27.25;21.25;;;;;;;;5033994;28;51086;-46
2022/03/03 11:06:35;;;;;;;;;25.50;19.75;;;;;;;;5038892;28;51197;-47
2022/03/03 11:09:19;;;;;;;;;25.00;20.00;;;;;;;;5032999;28;51086;-45
2022/03/03 11:12:06;;;;;;;;;8.25;2.75;;;;;;;;5024697;28;51241;-47
2022/03/03 11:14:52;;;;;;;;;25.25;19.75;;;;;;;;5022608;28;51317;-48
2022/03/03 11:17:41;;;;;;;;;24.00;18.00;;;;;;;;5019783;28;51097;-50
2022/03/03 11:20:25;;;;;;;;;27.50;19.00;;;;;;;;5027430;28;51217;-47
2022/03/03 11:23:10;;;;;;;;;25.00;21.25;;;;;;;;5038890;28;51504;-47
2022/03/03 11:25:54;;;;;;;;;25.25;21.00;;;;;;;;5038754;28;51243;-45
2022/03/03 11:28:39;;;;;;;;;20.00;15.00;;;;;;;;5035232;28;51179;-46
2022/03/03 11:31:26;;;;;;;;;26.00;21.00;;;;;;;;5019683;28;51031;-50
2022/03/03 11:34:30;;;;;;;;;23.25;19.25;;;;;;;;5030822;28;51193;-48
2022/03/03 11:37:24;;;;;;;;;27.00;26.25;;;;;;;;5020606;28;51086;-49
2022/03/03 11:40:11;;;;;;;;;25.00;19.50;;;;;;;;5024841;28;51164;-44
2022/03/03 11:42:56;;;;;;;;;27.25;21.00;;;;;;;;5028014;28;51338;-48
2022/03/03 11:45:47;;;;;;;;;26.50;21.00;;;;;;;;5028216;28;51152;-49
2022/03/03 11:48:39;;;;;;;;;30.50;20.00;;;;;;;;5029336;28;51661;-47
2022/03/03 11:51:34;;;;;;;;;28.00;21.75;;;;;;;;5027411;28;51035;-51
2022/03/03 11:54:31;;;;;;;;;26.00;20.75;;;;;;;;5026588;28;51227;-49
2022/03/03 11:57:16;;;;;;;;;23.25;20.00;;;;;;;;5025309;28;51541;-46
2022/03/03 12:00:01;;;;;;;;;26.50;20.25;;;;;;;;5018809;28;51131;-49
2022/03/03 12:02:53;;;;;;;;;26.00;21.25;;;;;;;;5018802;28;51181;-47
2022/03/03 12:05:39;;;;;;;;;29.75;22.50;;;;;;;;5020690;28;52198;-48
2022/03/03 12:08:24;;;;;;;;;29.50;17.75;;;;;;;;5025688;28;51200;-47
2022/03/03 12:11:11;;;;;;;;;28.25;22.50;;;;;;;;5018764;28;51142;-49
2022/03/03 12:13:58;;;;;;;;;22.25;20.00;;;;;;;;5018047;28;51131;-46
2022/03/03 12:16:45;;;;;;;;;20.25;17.50;;;;;;;;5021765;28;51133;-52
2022/03/03 12:19:35;;;;;;;;;27.00;24.00;;;;;;;;5018839;28;51196;-50
2022/03/03 12:22:26;;;;;;;;;26.00;22.75;;;;;;;;5038922;28;51550;-48
2022/03/03 12:25:11;;;;;;;;;27.00;22.50;;;;;;;;5037811;28;51208;-49
2022/03/03 12:28:13;;;;;;;;;29.75;23.25;;;;;;;;5034323;28;51080;-48
2022/03/03 12:30:58;;;;;;;;;25.75;21.50;;;;;;;;5024683;28;51114;-47
2022/03/03 12:33:53;;;;;;;;;27.75;19.00;;;;;;;;5016477;28;51481;-45
2022/03/03 12:36:44;;;;;;;;;27.50;24.00;;;;;;;;5019021;28;51135;-52
2022/03/03 12:39:28;;;;;;;;;2.00;0.00;;;;;;;;5037309;28;51571;-51
2022/03/03 12:42:13;;;;;;;;;32.50;24.75;;;;;;;;5025189;28;51154;-49
2022/03/03 12:45:07;;;;;;;;;34.50;21.75;;;;;;;;5026608;28;51204;-48
2022/03/03 12:47:53;;;;;;;;;24.25;20.75;;;;;;;;5025462;28;51781;-46
2022/03/03 12:50:39;;;;;;;;;25.50;21.00;;;;;;;;5017378;28;51380;-52
2022/03/03 12:53:32;;;;;;;;;27.00;22.50;;;;;;;;5020290;28;51486;-50
2022/03/03 12:56:23;;;;;;;;;32.75;21.50;;;;;;;;5022171;28;51181;-53
2022/03/03 12:59:08;;;;;;;;;31.25;22.50;;;;;;;;5018174;28;51475;-49
2022/03/03 13:01:56;;;;;;;;;21.75;21.75;;;;;;;;5028989;28;51198;-49
2022/03/03 13:04:46;;;;;;;;;28.25;21.50;;;;;;;;5036050;28;51172;-46
2022/03/03 13:07:40;;;;;;;;;27.50;21.00;;;;;;;;5033083;28;51104;-49
2022/03/03 13:10:25;;;;;;;;;20.50;18.25;;;;;;;;5042656;28;52223;-51
2022/03/03 13:13:09;;;;;;;;;26.00;23.00;;;;;;;;5036701;28;51103;-49
2022/03/03 13:15:54;;;;;;;;;19.50;19.50;;;;;;;;5038756;28;50999;-50
2022/03/03 13:18:38;;;;;;;;;24.50;19.75;;;;;;;;5042785;28;51164;-46
2022/03/03 13:21:26;;;;;;;;;25.50;17.75;;;;;;;;5036637;28;51156;-49
2022/03/03 13:24:11;;;;;;;;;24.75;22.00;;;;;;;;5037050;28;51140;-49
2022/03/03 13:26:55;;;;;;;;;19.00;13.00;;;;;;;;5025063;28;51002;-49
2022/03/03 13:29:39;;;;;;;;;22.25;19.00;;;;;;;;5028320;28;51444;-48
2022/03/03 13:32:23;;;;;;;;;26.50;21.75;;;;;;;;5027708;28;51087;-49
2022/03/03 13:35:08;;;;;;;;;27.75;19.25;;;;;;;;5031721;28;51262;-47
2022/03/03 13:37:53;;;;;;;;;23.50;19.50;;;;;;;;5038270;28;51333;-48
2022/03/03 13:40:39;;;;;;;;;24.25;21.50;;;;;;;;5025659;28;51141;-49
2022/03/03 13:43:26;;;;;;;;;26.25;22.75;;;;;;;;5022563;28;51263;-48
2022/03/03 13:46:11;;;;;;;;;27.50;19.50;;;;;;;;5032476;28;51605;-49
2022/03/03 13:48:55;;;;;;;;;26.25;20.50;;;;;;;;5030975;28;51462;-51
2022/03/03 13:51:39;;;;;;;;;21.75;17.25;;;;;;;;5033088;28;51184;-50
2022/03/03 13:54:24;;;;;;;;;17.75;13.75;;;;;;;;5032444;28;51081;-45
2022/03/03 13:57:08;;;;;;;;;31.50;20.75;;;;;;;;5031572;28;51227;-51
2022/03/03 13:59:53;;;;;;;;;26.25;18.00;;;;;;;;5025449;28;51121;-50
2022/03/03 14:03:13;;;;;;;;;22.00;19.50;;;;;;;;5044152;28;51419;-50
2022/03/03 14:06:03;;;;;;;;;22.00;19.00;;;;;;;;5021597;28;51265;-51
2022/03/03 14:08:49;;;;;;;;;26.25;18.50;;;;;;;;5043727;28;51147;-45
2022/03/03 14:11:33;;;;;;;;;24.75;20.25;;;;;;;;5030268;28;51105;-49
2022/03/03 14:14:18;;;;;;;;;24.75;19.00;;;;;;;;5027517;28;51049;-49
2022/03/03 14:17:03;;;;;;;;;22.50;20.50;;;;;;;;5030834;28;51114;-47
2022/03/03 14:19:47;;;;;;;;;22.25;17.50;;;;;;;;5029058;28;51117;-50
2022/03/03 14:22:32;;;;;;;;;26.25;17.50;;;;;;;;5028940;28;51211;-50
2022/03/03 14:25:16;;;;;;;;;23.50;17.50;;;;;;;;5028090;28;51066;-49
2022/03/03 14:28:02;;;;;;;;;22.00;17.50;;;;;;;;5020591;28;51461;-52
2022/03/03 14:30:47;;;;;;;;;27.25;19.50;;;;;;;;5040692;28;51355;-49
2022/03/03 14:33:31;;;;;;;;;23.75;17.25;;;;;;;;5027670;28;51188;-47
2022/03/03 14:36:18;;;;;;;;;23.00;16.25;;;;;;;;5021131;28;51537;-47
2022/03/03 14:39:02;;;;;;;;;26.00;20.00;;;;;;;;5037551;28;51404;-47
2022/03/03 14:41:47;;;;;;;;;20.00;16.50;;;;;;;;5021147;28;51022;-51
2022/03/03 14:44:32;;;;;;;;;26.75;17.75;;;;;;;;5007721;28;51533;-52
2022/03/03 14:47:16;;;;;;;;;26.75;21.00;;;;;;;;5020268;28;51225;-46
2022/03/03 14:50:04;;;;;;;;;22.00;19.50;;;;;;;;5039246;28;51097;-50
2022/03/03 14:52:48;;;;;;;;;28.00;20.00;;;;;;;;5040943;28;51393;-51
2022/03/03 14:55:33;;;;;;;;;17.50;16.50;;;;;;;;5034467;28;51170;-52
2022/03/03 14:58:17;;;;;;;;;22.00;18.25;;;;;;;;5027746;28;51208;-48
2022/03/03 15:01:01;;;;;;;;;24.50;18.25;;;;;;;;5036152;28;51268;-49
2022/03/03 15:03:45;;;;;;;;;24.25;19.50;;;;;;;;5037318;28;51049;-48
2022/03/03 15:06:30;;;;;;;;;30.50;22.25;;;;;;;;5036507;28;51160;-50
2022/03/03 15:09:16;;;;;;;;;28.25;23.25;;;;;;;;5037140;28;51145;-51
2022/03/03 15:12:01;;;;;;;;;11.00;11.00;;;;;;;;5035428;28;51069;-50
2022/03/03 15:14:45;;;;;;;;;22.75;18.00;;;;;;;;5034904;28;51641;-48
2022/03/03 15:17:30;;;;;;;;;25.75;17.75;;;;;;;;5036359;28;51428;-48
2022/03/03 15:20:15;;;;;;;;;23.00;16.00;;;;;;;;5039913;28;51228;-47
2022/03/03 15:22:59;;;;;;;;;22.00;18.75;;;;;;;;5039966;28;51139;-50
2022/03/03 15:25:43;;;;;;;;;25.25;20.00;;;;;;;;5037572;28;51049;-48
2022/03/03 15:28:28;;;;;;;;;28.50;19.00;;;;;;;;5027855;28;52556;-48
2022/03/03 15:31:12;;;;;;;;;23.50;17.25;;;;;;;;5033627;28;51142;-51
2022/03/03 15:37:10;;;;;;;;;21.50;17.75;;;;;;;;4983569;28;51088;-47
2022/03/03 15:39:54;;;;;;;;;19.25;17.50;;;;;;;;5036119;28;51210;-52
2022/03/03 15:42:40;;;;;;;;;23.25;18.25;;;;;;;;5039403;28;51504;-54
2022/03/03 15:45:24;;;;;;;;;23.50;20.00;;;;;;;;5029148;28;52803;-52
2022/03/03 15:48:08;;;;;;;;;25.25;17.25;;;;;;;;5025075;28;51090;-51
2022/03/03 15:50:52;;;;;;;;;20.25;19.75;;;;;;;;5033383;28;51130;-51
2022/03/03 15:53:37;;;;;;;;;27.50;20.50;;;;;;;;5028762;28;51508;-47
2022/03/03 15:56:22;;;;;;;;;22.50;19.00;;;;;;;;5024171;28;51115;-47
2022/03/03 15:59:08;;;;;;;;;28.50;21.00;;;;;;;;5033228;28;50999;-51
2022/03/03 16:01:52;;;;;;;;;27.25;21.00;;;;;;;;5020470;28;51157;-49
2022/03/03 16:04:36;;;;;;;;;22.25;19.00;;;;;;;;5039593;28;51147;-52
2022/03/03 16:07:21;;;;;;;;;18.50;17.25;;;;;;;;5039163;28;51448;-50
2022/03/03 16:10:07;;;;;;;;;29.25;19.50;;;;;;;;5038704;28;51497;-48